sensor_id;sensor_type;location;lat;lon;timestamp;pressure;altitude;pressure_sealevel;temperature;humidity
21395;BME280;10858;42.714;23.180;2023-02-21T00:01:55;94765.25;;;8.73;49.95
21395;BME280;10858;42.714;23.180;2023-02-21T00:04:40;94772.34;;;8.37;50.85
21395;BME280;10858;42.714;23.180;2023-02-21T00:07:25;94773.81;;;8.05;51.64
21395;BME280;10858;42.714;23.180;2023-02-21T00:10:13;94770.84;;;7.36;53.54
21395;BME280;10858;42.714;23.180;2023-02-21T00:12:58;94768.13;;;7.25;54.48
21395;BME280;10858;42.714;23.180;2023-02-21T00:15:42;94757.47;;;7.39;53.95
21395;BME280;10858;42.714;23.180;2023-02-21T00:18:27;94766.22;;;7.39;53.96
21395;BME280;10858;42.714;23.180;2023-02-21T00:21:11;94757.03;;;7.45;54.10
21395;BME280;10858;42.714;23.180;2023-02-21T00:23:56;94752.47;;;7.59;53.51
21395;BME280;10858;42.714;23.180;2023-02-21T00:26:41;94747.88;;;8.10;52.11
21395;BME280;10858;42.714;23.180;2023-02-21T00:29:25;94765.06;;;8.28;51.69
21395;BME280;10858;42.714;23.180;2023-02-21T00:32:10;94748.84;;;7.73;53.22
21395;BME280;10858;42.714;23.180;2023-02-21T00:34:55;94742.31;;;8.02;52.48
21395;BME280;10858;42.714;23.180;2023-02-21T00:37:39;94748.94;;;8.79;50.30
21395;BME280;10858;42.714;23.180;2023-02-21T00:40:24;94747.81;;;9.05;49.44
21395;BME280;10858;42.714;23.180;2023-02-21T00:43:09;94740.38;;;9.21;48.82
21395;BME280;10858;42.714;23.180;2023-02-21T00:45:53;94730.41;;;9.35;48.46
21395;BME280;10858;42.714;23.180;2023-02-21T00:48:38;94727.03;;;9.33;48.34
21395;BME280;10858;42.714;23.180;2023-02-21T00:51:23;94707.88;;;9.30;48.24
21395;BME280;10858;42.714;23.180;2023-02-21T00:54:07;94710.44;;;9.54;47.96
21395;BME280;10858;42.714;23.180;2023-02-21T00:56:51;94711.50;;;9.40;48.11
21395;BME280;10858;42.714;23.180;2023-02-21T00:59:36;94703.19;;;9.11;48.57
21395;BME280;10858;42.714;23.180;2023-02-21T01:02:21;94695.94;;;9.02;49.00
21395;BME280;10858;42.714;23.180;2023-02-21T01:05:05;94687.88;;;9.04;48.97
21395;BME280;10858;42.714;23.180;2023-02-21T01:07:50;94692.69;;;8.99;49.09
21395;BME280;10858;42.714;23.180;2023-02-21T01:10:35;94686.06;;;8.82;49.73
21395;BME280;10858;42.714;23.180;2023-02-21T01:13:20;94676.78;;;8.77;49.83
21395;BME280;10858;42.714;23.180;2023-02-21T01:16:06;94666.09;;;8.78;50.29
21395;BME280;10858;42.714;23.180;2023-02-21T01:18:51;94671.84;;;8.72;49.88
21395;BME280;10858;42.714;23.180;2023-02-21T01:21:36;94678.50;;;8.43;51.25
21395;BME280;10858;42.714;23.180;2023-02-21T01:24:21;94685.25;;;8.23;51.61
21395;BME280;10858;42.714;23.180;2023-02-21T01:27:05;94670.53;;;8.08;52.41
21395;BME280;10858;42.714;23.180;2023-02-21T01:29:50;94666.50;;;8.15;52.34
21395;BME280;10858;42.714;23.180;2023-02-21T01:32:35;94660.69;;;8.10;52.78
21395;BME280;10858;42.714;23.180;2023-02-21T01:35:19;94661.19;;;8.15;52.57
21395;BME280;10858;42.714;23.180;2023-02-21T01:38:04;94662.78;;;8.52;50.91
21395;BME280;10858;42.714;23.180;2023-02-21T01:40:49;94661.28;;;8.72;50.60
21395;BME280;10858;42.714;23.180;2023-02-21T01:43:33;94649.38;;;8.67;50.91
21395;BME280;10858;42.714;23.180;2023-02-21T01:46:19;94648.19;;;8.93;49.68
21395;BME280;10858;42.714;23.180;2023-02-21T01:49:08;94646.28;;;9.39;48.24
21395;BME280;10858;42.714;23.180;2023-02-21T01:51:53;94641.63;;;9.74;47.53
21395;BME280;10858;42.714;23.180;2023-02-21T01:54:43;94639.34;;;9.81;47.35
21395;BME280;10858;42.714;23.180;2023-02-21T01:57:29;94643.69;;;9.71;47.46
21395;BME280;10858;42.714;23.180;2023-02-21T02:00:15;94644.00;;;9.46;47.97
21395;BME280;10858;42.714;23.180;2023-02-21T02:03:03;94640.50;;;9.23;48.60
21395;BME280;10858;42.714;23.180;2023-02-21T02:05:58;94637.63;;;9.37;48.17
21395;BME280;10858;42.714;23.180;2023-02-21T02:08:44;94640.97;;;9.50;48.27
21395;BME280;10858;42.714;23.180;2023-02-21T02:20:30;94629.81;;;9.89;46.43
21395;BME280;10858;42.714;23.180;2023-02-21T02:40:32;94615.50;;;10.23;45.45
21395;BME280;10858;42.714;23.180;2023-02-21T02:48:37;94604.47;;;9.96;46.16
21395;BME280;10858;42.714;23.180;2023-02-21T02:51:08;94613.41;;;9.95;45.93
21395;BME280;10858;42.714;23.180;2023-02-21T02:53:36;94616.50;;;10.00;46.01
21395;BME280;10858;42.714;23.180;2023-02-21T02:56:09;94610.50;;;9.98;46.41
21395;BME280;10858;42.714;23.180;2023-02-21T02:58:52;94611.41;;;10.19;45.42
21395;BME280;10858;42.714;23.180;2023-02-21T03:03:57;94605.13;;;10.20;45.80
21395;BME280;10858;42.714;23.180;2023-02-21T03:09:59;94621.00;;;9.35;47.74
21395;BME280;10858;42.714;23.180;2023-02-21T03:12:43;94617.66;;;8.89;48.89
21395;BME280;10858;42.714;23.180;2023-02-21T03:15:31;94607.19;;;8.87;49.09
21395;BME280;10858;42.714;23.180;2023-02-21T03:20:32;94603.94;;;8.95;48.92
21395;BME280;10858;42.714;23.180;2023-02-21T03:22:59;94603.94;;;8.62;49.95
21395;BME280;10858;42.714;23.180;2023-02-21T03:25:29;94605.97;;;8.69;49.54
21395;BME280;10858;42.714;23.180;2023-02-21T03:27:58;94602.25;;;8.72;49.43
21395;BME280;10858;42.714;23.180;2023-02-21T03:30:25;94581.69;;;8.64;49.97
21395;BME280;10858;42.714;23.180;2023-02-21T03:32:52;94595.16;;;8.61;49.64
21395;BME280;10858;42.714;23.180;2023-02-21T03:35:20;94595.28;;;8.71;49.20
21395;BME280;10858;42.714;23.180;2023-02-21T03:37:48;94586.84;;;9.10;48.55
21395;BME280;10858;42.714;23.180;2023-02-21T03:40:23;94592.88;;;9.01;48.44
21395;BME280;10858;42.714;23.180;2023-02-21T03:42:50;94594.78;;;9.10;48.26
21395;BME280;10858;42.714;23.180;2023-02-21T03:45:17;94589.97;;;9.04;48.27
21395;BME280;10858;42.714;23.180;2023-02-21T03:47:43;94594.56;;;9.02;48.72
21395;BME280;10858;42.714;23.180;2023-02-21T03:50:09;94599.97;;;9.11;48.26
21395;BME280;10858;42.714;23.180;2023-02-21T03:52:36;94608.88;;;9.10;48.45
21395;BME280;10858;42.714;23.180;2023-02-21T03:55:02;94607.69;;;8.81;49.34
21395;BME280;10858;42.714;23.180;2023-02-21T03:57:28;94602.50;;;8.69;49.15
21395;BME280;10858;42.714;23.180;2023-02-21T03:59:55;94611.50;;;8.66;49.73
21395;BME280;10858;42.714;23.180;2023-02-21T04:02:21;94611.66;;;8.98;48.60
21395;BME280;10858;42.714;23.180;2023-02-21T04:04:47;94616.47;;;9.15;47.85
21395;BME280;10858;42.714;23.180;2023-02-21T04:07:15;94612.31;;;9.44;47.32
21395;BME280;10858;42.714;23.180;2023-02-21T04:09:41;94600.25;;;9.62;47.13
21395;BME280;10858;42.714;23.180;2023-02-21T04:12:08;94610.47;;;9.67;46.46
21395;BME280;10858;42.714;23.180;2023-02-21T04:14:34;94609.63;;;9.66;46.50
21395;BME280;10858;42.714;23.180;2023-02-21T04:17:00;94611.69;;;9.63;46.59
21395;BME280;10858;42.714;23.180;2023-02-21T04:19:26;94622.91;;;9.55;46.73
21395;BME280;10858;42.714;23.180;2023-02-21T04:21:53;94628.81;;;9.48;46.75
21395;BME280;10858;42.714;23.180;2023-02-21T04:24:19;94633.50;;;9.55;46.58
21395;BME280;10858;42.714;23.180;2023-02-21T04:26:45;94629.91;;;9.45;47.38
21395;BME280;10858;42.714;23.180;2023-02-21T04:29:11;94634.38;;;9.33;47.16
21395;BME280;10858;42.714;23.180;2023-02-21T04:31:38;94637.34;;;9.51;46.63
21395;BME280;10858;42.714;23.180;2023-02-21T04:34:04;94640.97;;;9.39;47.01
21395;BME280;10858;42.714;23.180;2023-02-21T04:36:30;94643.41;;;9.31;47.18
21395;BME280;10858;42.714;23.180;2023-02-21T04:38:56;94636.56;;;9.17;47.85
21395;BME280;10858;42.714;23.180;2023-02-21T04:41:23;94655.66;;;9.10;47.76
21395;BME280;10858;42.714;23.180;2023-02-21T04:43:49;94654.84;;;8.52;49.31
21395;BME280;10858;42.714;23.180;2023-02-21T04:46:17;94639.78;;;8.31;49.89
21395;BME280;10858;42.714;23.180;2023-02-21T04:48:46;94646.88;;;8.30;50.07
21395;BME280;10858;42.714;23.180;2023-02-21T04:51:15;94635.03;;;7.65;51.91
21395;BME280;10858;42.714;23.180;2023-02-21T04:53:42;94651.03;;;7.51;52.24
21395;BME280;10858;42.714;23.180;2023-02-21T04:56:08;94638.53;;;7.29;52.97
21395;BME280;10858;42.714;23.180;2023-02-21T04:58:36;94635.63;;;6.96;54.03
21395;BME280;10858;42.714;23.180;2023-02-21T05:01:02;94632.56;;;6.89;54.26
21395;BME280;10858;42.714;23.180;2023-02-21T05:03:28;94618.50;;;7.02;54.16
21395;BME280;10858;42.714;23.180;2023-02-21T05:05:54;94619.25;;;7.04;53.94
21395;BME280;10858;42.714;23.180;2023-02-21T05:08:21;94628.25;;;6.76;54.40
21395;BME280;10858;42.714;23.180;2023-02-21T05:10:49;94625.09;;;6.46;55.69
21395;BME280;10858;42.714;23.180;2023-02-21T05:13:15;94607.41;;;6.35;56.33
21395;BME280;10858;42.714;23.180;2023-02-21T05:15:42;94606.16;;;7.15;54.21
21395;BME280;10858;42.714;23.180;2023-02-21T05:18:08;94596.44;;;7.75;52.71
21395;BME280;10858;42.714;23.180;2023-02-21T05:20:34;94601.50;;;8.47;50.64
21395;BME280;10858;42.714;23.180;2023-02-21T05:23:00;94602.38;;;8.81;49.57
21395;BME280;10858;42.714;23.180;2023-02-21T05:25:26;94599.00;;;9.23;48.14
21395;BME280;10858;42.714;23.180;2023-02-21T05:27:53;94604.41;;;9.22;48.11
21395;BME280;10858;42.714;23.180;2023-02-21T05:30:21;94611.03;;;9.27;47.83
21395;BME280;10858;42.714;23.180;2023-02-21T05:32:49;94608.84;;;9.32;47.50
21395;BME280;10858;42.714;23.180;2023-02-21T05:35:16;94595.94;;;9.50;47.07
21395;BME280;10858;42.714;23.180;2023-02-21T05:37:43;94607.28;;;9.41;47.27
21395;BME280;10858;42.714;23.180;2023-02-21T05:40:12;94606.56;;;9.28;47.50
21395;BME280;10858;42.714;23.180;2023-02-21T05:42:40;94615.00;;;9.22;47.79
21395;BME280;10858;42.714;23.180;2023-02-21T05:45:07;94616.41;;;9.48;47.35
21395;BME280;10858;42.714;23.180;2023-02-21T05:47:34;94613.31;;;9.43;47.40
21395;BME280;10858;42.714;23.180;2023-02-21T05:50:01;94613.75;;;9.59;47.38
21395;BME280;10858;42.714;23.180;2023-02-21T05:52:28;94617.56;;;9.66;47.35
21395;BME280;10858;42.714;23.180;2023-02-21T05:54:54;94619.41;;;9.55;47.53
21395;BME280;10858;42.714;23.180;2023-02-21T05:57:20;94623.56;;;9.79;47.02
21395;BME280;10858;42.714;23.180;2023-02-21T05:59:46;94625.16;;;10.02;46.46
21395;BME280;10858;42.714;23.180;2023-02-21T06:02:15;94628.13;;;9.88;46.66
21395;BME280;10858;42.714;23.180;2023-02-21T06:04:42;94640.13;;;10.03;46.38
21395;BME280;10858;42.714;23.180;2023-02-21T06:07:08;94637.94;;;10.08;46.21
21395;BME280;10858;42.714;23.180;2023-02-21T06:09:34;94637.56;;;10.45;45.49
21395;BME280;10858;42.714;23.180;2023-02-21T06:12:00;94634.25;;;10.32;45.84
21395;BME280;10858;42.714;23.180;2023-02-21T06:14:26;94637.84;;;10.42;45.34
21395;BME280;10858;42.714;23.180;2023-02-21T06:16:52;94636.25;;;11.01;44.76
21395;BME280;10858;42.714;23.180;2023-02-21T06:19:19;94641.03;;;11.67;42.48
21395;BME280;10858;42.714;23.180;2023-02-21T06:21:46;94620.44;;;12.38;41.92
21395;BME280;10858;42.714;23.180;2023-02-21T06:24:12;94636.34;;;12.95;40.08
21395;BME280;10858;42.714;23.180;2023-02-21T06:26:39;94634.97;;;14.01;38.20
21395;BME280;10858;42.714;23.180;2023-02-21T06:29:07;94638.28;;;14.13;37.18
21395;BME280;10858;42.714;23.180;2023-02-21T06:31:33;94636.09;;;14.96;36.38
21395;BME280;10858;42.714;23.180;2023-02-21T06:34:01;94644.56;;;14.92;35.93
21395;BME280;10858;42.714;23.180;2023-02-21T06:36:28;94643.03;;;13.92;37.99
21395;BME280;10858;42.714;23.180;2023-02-21T06:38:56;94650.75;;;13.95;37.61
21395;BME280;10858;42.714;23.180;2023-02-21T06:41:25;94644.59;;;13.57;37.96
21395;BME280;10858;42.714;23.180;2023-02-21T06:43:53;94651.72;;;13.30;38.65
21395;BME280;10858;42.714;23.180;2023-02-21T06:46:22;94649.56;;;13.43;38.65
21395;BME280;10858;42.714;23.180;2023-02-21T06:48:49;94656.03;;;13.31;38.81
21395;BME280;10858;42.714;23.180;2023-02-21T06:51:16;94648.31;;;12.62;40.10
21395;BME280;10858;42.714;23.180;2023-02-21T06:53:43;94657.56;;;11.80;41.16
21395;BME280;10858;42.714;23.180;2023-02-21T06:56:10;94652.72;;;11.95;41.44
21395;BME280;10858;42.714;23.180;2023-02-21T06:58:36;94646.59;;;12.14;41.22
21395;BME280;10858;42.714;23.180;2023-02-21T07:01:03;94645.75;;;12.23;41.43
21395;BME280;10858;42.714;23.180;2023-02-21T07:03:29;94646.03;;;12.39;40.55
21395;BME280;10858;42.714;23.180;2023-02-21T07:05:55;94653.91;;;12.78;40.46
21395;BME280;10858;42.714;23.180;2023-02-21T07:08:21;94651.50;;;13.04;39.89
21395;BME280;10858;42.714;23.180;2023-02-21T07:10:47;94661.50;;;13.76;38.19
21395;BME280;10858;42.714;23.180;2023-02-21T07:13:14;94657.66;;;13.14;39.25
21395;BME280;10858;42.714;23.180;2023-02-21T07:15:40;94661.59;;;12.72;40.17
21395;BME280;10858;42.714;23.180;2023-02-21T07:18:06;94645.38;;;12.56;41.00
21395;BME280;10858;42.714;23.180;2023-02-21T07:20:32;94656.25;;;12.81;39.95
21395;BME280;10858;42.714;23.180;2023-02-21T07:23:00;94658.50;;;13.05;39.14
21395;BME280;10858;42.714;23.180;2023-02-21T07:25:26;94659.34;;;13.89;38.12
21395;BME280;10858;42.714;23.180;2023-02-21T07:27:52;94651.50;;;16.13;35.88
21395;BME280;10858;42.714;23.180;2023-02-21T07:30:19;94634.06;;;16.75;32.91
21395;BME280;10858;42.714;23.180;2023-02-21T07:32:45;94639.94;;;17.11;32.64
21395;BME280;10858;42.714;23.180;2023-02-21T07:35:12;94644.72;;;19.33;29.50
21395;BME280;10858;42.714;23.180;2023-02-21T07:37:38;94637.19;;;20.09;27.53
21395;BME280;10858;42.714;23.180;2023-02-21T07:40:05;94627.03;;;20.41;27.25
21395;BME280;10858;42.714;23.180;2023-02-21T07:42:34;94627.91;;;20.12;27.41
21395;BME280;10858;42.714;23.180;2023-02-21T07:45:01;94624.81;;;19.71;27.83
21395;BME280;10858;42.714;23.180;2023-02-21T07:47:27;94618.78;;;19.69;27.49
21395;BME280;10858;42.714;23.180;2023-02-21T07:49:53;94613.25;;;20.00;28.00
21395;BME280;10858;42.714;23.180;2023-02-21T07:52:20;94603.28;;;20.00;27.66
21395;BME280;10858;42.714;23.180;2023-02-21T07:54:47;94598.66;;;18.45;30.06
21395;BME280;10858;42.714;23.180;2023-02-21T07:57:15;94604.28;;;17.81;30.60
21395;BME280;10858;42.714;23.180;2023-02-21T07:59:42;94595.91;;;17.05;31.10
21395;BME280;10858;42.714;23.180;2023-02-21T08:02:12;94603.19;;;15.81;33.63
21395;BME280;10858;42.714;23.180;2023-02-21T08:04:39;94590.81;;;15.80;33.70
21395;BME280;10858;42.714;23.180;2023-02-21T08:07:06;94595.84;;;15.23;34.19
21395;BME280;10858;42.714;23.180;2023-02-21T08:09:33;94597.78;;;14.88;35.60
21395;BME280;10858;42.714;23.180;2023-02-21T08:12:00;94588.72;;;14.63;36.13
21395;BME280;10858;42.714;23.180;2023-02-21T08:14:26;94600.25;;;14.64;36.17
21395;BME280;10858;42.714;23.180;2023-02-21T08:16:54;94589.81;;;14.53;36.26
21395;BME280;10858;42.714;23.180;2023-02-21T08:19:20;94574.75;;;14.69;35.90
21395;BME280;10858;42.714;23.180;2023-02-21T08:21:49;94586.44;;;16.21;33.97
21395;BME280;10858;42.714;23.180;2023-02-21T08:24:16;94592.31;;;17.53;30.91
21395;BME280;10858;42.714;23.180;2023-02-21T08:26:43;94589.59;;;17.61;31.01
21395;BME280;10858;42.714;23.180;2023-02-21T08:29:11;94586.03;;;16.65;32.67
21395;BME280;10858;42.714;23.180;2023-02-21T08:31:39;94585.81;;;15.85;33.54
21395;BME280;10858;42.714;23.180;2023-02-21T08:34:06;94589.47;;;15.42;34.16
21395;BME280;10858;42.714;23.180;2023-02-21T08:36:38;94584.00;;;15.93;33.13
21395;BME280;10858;42.714;23.180;2023-02-21T08:39:06;94576.00;;;15.60;33.25
21395;BME280;10858;42.714;23.180;2023-02-21T08:41:41;94581.34;;;15.60;33.70
21395;BME280;10858;42.714;23.180;2023-02-21T08:44:09;94587.53;;;16.02;33.12
21395;BME280;10858;42.714;23.180;2023-02-21T08:46:36;94570.84;;;16.16;32.78
21395;BME280;10858;42.714;23.180;2023-02-21T08:49:04;94583.34;;;16.57;31.95
21395;BME280;10858;42.714;23.180;2023-02-21T08:51:31;94576.97;;;16.74;31.84
21395;BME280;10858;42.714;23.180;2023-02-21T08:53:59;94581.75;;;17.59;30.41
21395;BME280;10858;42.714;23.180;2023-02-21T08:56:26;94571.78;;;17.68;30.96
21395;BME280;10858;42.714;23.180;2023-02-21T08:58:53;94579.63;;;17.07;31.02
21395;BME280;10858;42.714;23.180;2023-02-21T09:01:20;94579.63;;;17.07;31.48
21395;BME280;10858;42.714;23.180;2023-02-21T09:03:47;94583.81;;;17.25;30.26
21395;BME280;10858;42.714;23.180;2023-02-21T09:06:14;94566.47;;;17.99;30.02
21395;BME280;10858;42.714;23.180;2023-02-21T09:08:40;94571.72;;;18.53;29.80
21395;BME280;10858;42.714;23.180;2023-02-21T09:11:07;94564.59;;;19.06;29.13
21395;BME280;10858;42.714;23.180;2023-02-21T09:13:33;94560.47;;;19.76;26.93
21395;BME280;10858;42.714;23.180;2023-02-21T09:16:01;94564.47;;;20.09;27.02
21395;BME280;10858;42.714;23.180;2023-02-21T09:18:28;94559.00;;;19.59;27.26
21395;BME280;10858;42.714;23.180;2023-02-21T09:20:56;94563.94;;;19.56;28.75
21395;BME280;10858;42.714;23.180;2023-02-21T09:23:27;94555.09;;;19.76;26.74
21395;BME280;10858;42.714;23.180;2023-02-21T09:25:54;94549.44;;;19.05;27.49
21395;BME280;10858;42.714;23.180;2023-02-21T09:28:20;94546.84;;;19.48;27.52
21395;BME280;10858;42.714;23.180;2023-02-21T09:30:48;94550.56;;;19.91;26.64
21395;BME280;10858;42.714;23.180;2023-02-21T09:33:15;94550.66;;;19.83;27.53
21395;BME280;10858;42.714;23.180;2023-02-21T09:35:41;94547.16;;;20.33;26.76
21395;BME280;10858;42.714;23.180;2023-02-21T09:38:08;94539.75;;;20.77;25.97
21395;BME280;10858;42.714;23.180;2023-02-21T09:43:20;94522.84;;;20.69;25.86
21395;BME280;10858;42.714;23.180;2023-02-21T09:45:49;94540.31;;;20.94;25.93
21395;BME280;10858;42.714;23.180;2023-02-21T09:48:19;94534.16;;;21.55;24.47
21395;BME280;10858;42.714;23.180;2023-02-21T09:50:55;94531.78;;;21.73;23.76
21395;BME280;10858;42.714;23.180;2023-02-21T09:53:27;94543.06;;;20.79;24.58
21395;BME280;10858;42.714;23.180;2023-02-21T09:56:04;94537.59;;;21.70;22.79
21395;BME280;10858;42.714;23.180;2023-02-21T09:58:32;94533.06;;;21.43;23.17
21395;BME280;10858;42.714;23.180;2023-02-21T10:01:05;94533.91;;;21.16;24.29
21395;BME280;10858;42.714;23.180;2023-02-21T10:06:35;94524.53;;;22.15;21.34
21395;BME280;10858;42.714;23.180;2023-02-21T10:18:00;94511.06;;;21.46;22.70
21395;BME280;10858;42.714;23.180;2023-02-21T10:20:34;94502.53;;;22.18;23.15
21395;BME280;10858;42.714;23.180;2023-02-21T10:23:52;94506.97;;;22.45;22.11
21395;BME280;10858;42.714;23.180;2023-02-21T10:25:58;94501.88;;;22.83;21.54
21395;BME280;10858;42.714;23.180;2023-02-21T10:28:27;94499.59;;;23.12;20.57
21395;BME280;10858;42.714;23.180;2023-02-21T10:31:00;94481.91;;;21.69;22.11
21395;BME280;10858;42.714;23.180;2023-02-21T10:33:36;94490.75;;;20.53;23.74
21395;BME280;10858;42.714;23.180;2023-02-21T10:36:08;94497.91;;;21.64;22.56
21395;BME280;10858;42.714;23.180;2023-02-21T10:38:34;94490.25;;;21.74;23.11
21395;BME280;10858;42.714;23.180;2023-02-21T10:41:03;94480.44;;;21.67;23.26
21395;BME280;10858;42.714;23.180;2023-02-21T10:43:30;94479.47;;;22.22;22.23
21395;BME280;10858;42.714;23.180;2023-02-21T10:48:36;94477.28;;;22.71;22.23
21395;BME280;10858;42.714;23.180;2023-02-21T11:01:41;94450.66;;;23.07;21.34
21395;BME280;10858;42.714;23.180;2023-02-21T11:12:28;94438.84;;;21.21;23.66
21395;BME280;10858;42.714;23.180;2023-02-21T11:17:26;94435.53;;;20.21;24.33
21395;BME280;10858;42.714;23.180;2023-02-21T11:20:18;94421.59;;;20.17;24.76
21395;BME280;10858;42.714;23.180;2023-02-21T11:22:47;94419.09;;;20.37;24.05
21395;BME280;10858;42.714;23.180;2023-02-21T11:25:24;94422.09;;;20.49;24.91
21395;BME280;10858;42.714;23.180;2023-02-21T11:28:21;94423.25;;;20.61;24.40
21395;BME280;10858;42.714;23.180;2023-02-21T11:31:16;94407.25;;;20.31;24.45
21395;BME280;10858;42.714;23.180;2023-02-21T11:34:04;94406.25;;;19.61;24.85
21395;BME280;10858;42.714;23.180;2023-02-21T11:36:42;94400.78;;;19.90;24.79
21395;BME280;10858;42.714;23.180;2023-02-21T11:39:35;94391.44;;;20.07;24.84
21395;BME280;10858;42.714;23.180;2023-02-21T11:42:03;94394.41;;;20.33;24.71
21395;BME280;10858;42.714;23.180;2023-02-21T11:44:40;94392.72;;;20.11;25.16
21395;BME280;10858;42.714;23.180;2023-02-21T11:49:59;94389.25;;;20.39;24.26
21395;BME280;10858;42.714;23.180;2023-02-21T11:52:42;94381.81;;;20.68;25.30
21395;BME280;10858;42.714;23.180;2023-02-21T11:55:18;94373.34;;;20.71;24.37
21395;BME280;10858;42.714;23.180;2023-02-21T11:57:55;94361.06;;;20.96;24.44
21395;BME280;10858;42.714;23.180;2023-02-21T12:00:45;94348.69;;;21.02;24.20
21395;BME280;10858;42.714;23.180;2023-02-21T12:19:55;94329.47;;;19.86;25.47
21395;BME280;10858;42.714;23.180;2023-02-21T12:25:25;94312.59;;;21.03;24.75
21395;BME280;10858;42.714;23.180;2023-02-21T12:29:08;94318.34;;;21.34;23.93
21395;BME280;10858;42.714;23.180;2023-02-21T12:31:15;94294.63;;;22.55;22.58
21395;BME280;10858;42.714;23.180;2023-02-21T12:36:45;94309.94;;;21.76;23.86
21395;BME280;10858;42.714;23.180;2023-02-21T12:47:19;94296.28;;;22.50;23.03
21395;BME280;10858;42.714;23.180;2023-02-21T12:53:06;94289.50;;;24.06;22.04
21395;BME280;10858;42.714;23.180;2023-02-21T12:55:39;94288.69;;;23.99;20.50
21395;BME280;10858;42.714;23.180;2023-02-21T12:58:25;94281.66;;;23.92;20.48
21395;BME280;10858;42.714;23.180;2023-02-21T13:00:55;94274.50;;;24.04;20.54
21395;BME280;10858;42.714;23.180;2023-02-21T13:09:14;94272.47;;;26.87;18.28
21395;BME280;10858;42.714;23.180;2023-02-21T13:14:50;94273.72;;;26.62;18.42
21395;BME280;10858;42.714;23.180;2023-02-21T13:17:20;94261.06;;;27.14;18.21
21395;BME280;10858;42.714;23.180;2023-02-21T13:20:08;94257.88;;;27.17;17.30
21395;BME280;10858;42.714;23.180;2023-02-21T13:26:21;94248.03;;;27.16;17.95
21395;BME280;10858;42.714;23.180;2023-02-21T13:28:56;94249.59;;;26.65;17.80
21395;BME280;10858;42.714;23.180;2023-02-21T13:31:32;94244.69;;;26.21;18.37
21395;BME280;10858;42.714;23.180;2023-02-21T13:34:06;94232.78;;;26.68;18.80
21395;BME280;10858;42.714;23.180;2023-02-21T13:36:41;94237.72;;;27.41;16.44
21395;BME280;10858;42.714;23.180;2023-02-21T13:39:21;94228.34;;;25.80;18.02
21395;BME280;10858;42.714;23.180;2023-02-21T13:44:37;94225.03;;;25.78;18.89
21395;BME280;10858;42.714;23.180;2023-02-21T14:13:47;94218.25;;;26.74;15.77
21395;BME280;10858;42.714;23.180;2023-02-21T14:16:19;94215.13;;;26.13;16.39
21395;BME280;10858;42.714;23.180;2023-02-21T14:19:01;94216.81;;;25.55;16.27
21395;BME280;10858;42.714;23.180;2023-02-21T14:21:38;94220.28;;;24.71;16.26
21395;BME280;10858;42.714;23.180;2023-02-21T14:24:15;94218.97;;;23.82;17.24
21395;BME280;10858;42.714;23.180;2023-02-21T14:29:30;94213.75;;;21.62;19.21
21395;BME280;10858;42.714;23.180;2023-02-21T14:37:39;94215.72;;;20.67;20.53
21395;BME280;10858;42.714;23.180;2023-02-21T14:59:48;94209.44;;;21.87;18.53
21395;BME280;10858;42.714;23.180;2023-02-21T15:10:31;94199.84;;;20.92;19.83
21395;BME280;10858;42.714;23.180;2023-02-21T15:13:00;94197.25;;;20.23;20.92
21395;BME280;10858;42.714;23.180;2023-02-21T15:15:28;94205.63;;;19.86;20.63
21395;BME280;10858;42.714;23.180;2023-02-21T15:18:22;94208.38;;;19.44;21.20
21395;BME280;10858;42.714;23.180;2023-02-21T15:21:06;94211.16;;;19.15;22.00
21395;BME280;10858;42.714;23.180;2023-02-21T15:23:32;94217.84;;;18.83;22.50
21395;BME280;10858;42.714;23.180;2023-02-21T15:26:20;94207.88;;;18.48;23.11
21395;BME280;10858;42.714;23.180;2023-02-21T15:31:51;94210.09;;;18.30;23.72
21395;BME280;10858;42.714;23.180;2023-02-21T15:36:48;94217.41;;;17.92;24.84
21395;BME280;10858;42.714;23.180;2023-02-21T15:39:27;94221.84;;;17.85;24.62
21395;BME280;10858;42.714;23.180;2023-02-21T15:41:54;94218.94;;;17.72;25.39
21395;BME280;10858;42.714;23.180;2023-02-21T15:47:18;94226.44;;;17.39;26.09
21395;BME280;10858;42.714;23.180;2023-02-21T15:50:38;94223.63;;;17.10;26.04
21395;BME280;10858;42.714;23.180;2023-02-21T15:52:45;94231.94;;;16.62;27.25
21395;BME280;10858;42.714;23.180;2023-02-21T16:00:39;94235.41;;;15.20;29.73
21395;BME280;10858;42.714;23.180;2023-02-21T16:03:36;94234.69;;;14.78;30.70
21395;BME280;10858;42.714;23.180;2023-02-21T16:19:32;94244.31;;;13.62;32.80
21395;BME280;10858;42.714;23.180;2023-02-21T16:24:49;94248.94;;;12.99;34.31
21395;BME280;10858;42.714;23.180;2023-02-21T16:27:29;94241.50;;;12.67;34.21
21395;BME280;10858;42.714;23.180;2023-02-21T16:29:55;94246.63;;;12.34;36.96
21395;BME280;10858;42.714;23.180;2023-02-21T16:32:21;94254.22;;;12.02;35.82
21395;BME280;10858;42.714;23.180;2023-02-21T16:34:50;94251.13;;;12.06;34.79
21395;BME280;10858;42.714;23.180;2023-02-21T16:37:21;94262.78;;;11.95;36.15
21395;BME280;10858;42.714;23.180;2023-02-21T16:39:48;94263.13;;;11.73;35.72
21395;BME280;10858;42.714;23.180;2023-02-21T16:42:14;94258.78;;;11.72;35.35
21395;BME280;10858;42.714;23.180;2023-02-21T16:44:44;94267.06;;;11.60;36.68
21395;BME280;10858;42.714;23.180;2023-02-21T16:47:17;94259.56;;;11.46;36.10
21395;BME280;10858;42.714;23.180;2023-02-21T16:49:45;94264.75;;;11.38;36.58
21395;BME280;10858;42.714;23.180;2023-02-21T16:52:14;94264.88;;;11.27;37.28
21395;BME280;10858;42.714;23.180;2023-02-21T16:54:40;94268.69;;;11.14;37.16
21395;BME280;10858;42.714;23.180;2023-02-21T16:57:06;94265.91;;;10.97;37.98
21395;BME280;10858;42.714;23.180;2023-02-21T16:59:35;94271.63;;;10.83;38.25
21395;BME280;10858;42.714;23.180;2023-02-21T17:02:02;94266.63;;;10.80;37.94
21395;BME280;10858;42.714;23.180;2023-02-21T17:04:30;94272.34;;;10.66;38.83